Time;durP1;ratioP1;P1;durP2;ratioP2;P2;SDS_P1;SDS_P2;PMS_P1;PMS_P2;Temp;Humidity;BMP_temperature;BMP_pressure;BME280_temperature;BME280_humidity;BME280_pressure;Samples;Min_cycle;Max_cycle;Signal;HPM_P1;HPM_P2
2024/01/29 00:00:33;;;;;;;26.30;11.10;;;9.60;99.90;;;;;;6207205;23;20000;-64
2024/01/29 00:02:59;;;;;;;19.15;10.05;;;9.70;99.90;;;;;;6208775;23;20437;-67
2024/01/29 00:05:24;;;;;;;23.73;10.23;;;9.90;99.90;;;;;;6206752;23;20373;-65
2024/01/29 00:07:50;;;;;;;17.13;10.27;;;9.70;99.90;;;;;;6208880;23;20012;-72
2024/01/29 00:10:16;;;;;;;26.23;9.67;;;9.60;99.90;;;;;;6206429;23;20091;-68
2024/01/29 00:12:41;;;;;;;26.60;10.13;;;9.70;99.90;;;;;;6208553;23;20001;-72
2024/01/29 00:15:08;;;;;;;22.53;9.90;;;9.50;99.90;;;;;;6208209;23;20059;-67
2024/01/29 00:17:34;;;;;;;22.35;9.20;;;9.40;99.90;;;;;;6207546;23;20009;-71
2024/01/29 00:19:59;;;;;;;18.40;9.07;;;9.50;99.90;;;;;;6208143;23;20468;-70
2024/01/29 00:22:25;;;;;;;21.47;8.87;;;9.50;99.90;;;;;;6207427;23;20477;-67
2024/01/29 00:24:51;;;;;;;21.07;9.47;;;9.60;99.90;;;;;;6207306;23;20011;-72
2024/01/29 00:27:18;;;;;;;22.33;9.80;;;9.50;99.90;;;;;;6207886;23;20047;-68
2024/01/29 00:29:44;;;;;;;15.98;9.57;;;9.50;99.90;;;;;;6207486;23;20031;-67
2024/01/29 00:32:09;;;;;;;27.37;9.97;;;9.40;99.90;;;;;;6207645;23;20079;-70
2024/01/29 00:34:35;;;;;;;27.70;9.47;;;9.30;99.90;;;;;;6205518;23;20441;-65
2024/01/29 00:37:01;;;;;;;17.03;9.63;;;9.40;99.90;;;;;;6207480;23;20075;-67
2024/01/29 00:39:26;;;;;;;20.75;9.23;;;9.50;99.90;;;;;;6207095;23;20382;-64
2024/01/29 00:41:52;;;;;;;23.53;11.13;;;9.60;99.90;;;;;;6207153;23;20027;-69
2024/01/29 00:44:19;;;;;;;24.37;10.60;;;9.60;99.90;;;;;;6208319;23;20014;-70
2024/01/29 00:46:45;;;;;;;26.33;10.52;;;9.60;99.90;;;;;;6207801;23;20023;-69
2024/01/29 00:49:10;;;;;;;22.03;9.40;;;9.50;99.90;;;;;;6207805;23;20008;-63
2024/01/29 00:51:36;;;;;;;23.17;9.33;;;9.50;99.90;;;;;;6207922;23;20008;-66
2024/01/29 00:54:02;;;;;;;22.40;9.67;;;9.30;99.90;;;;;;6207620;23;20010;-66
2024/01/29 00:56:27;;;;;;;23.38;9.43;;;9.20;99.90;;;;;;6207858;23;20008;-66
2024/01/29 00:58:53;;;;;;;24.40;10.33;;;9.10;99.90;;;;;;6207582;23;20008;-67
2024/01/29 01:01:19;;;;;;;20.77;9.00;;;9.20;99.90;;;;;;6207591;23;20358;-64
2024/01/29 01:03:45;;;;;;;14.30;8.77;;;9.30;99.90;;;;;;6207969;23;21041;-65
2024/01/29 01:06:10;;;;;;;16.20;8.97;;;9.30;99.90;;;;;;6208015;23;20501;-70
2024/01/29 01:08:36;;;;;;;20.65;9.07;;;9.20;99.90;;;;;;6207539;23;20012;-68
2024/01/29 01:11:03;;;;;;;25.63;9.10;;;9.30;99.90;;;;;;6207905;23;20039;-73
2024/01/29 01:13:28;;;;;;;24.92;9.68;;;9.20;99.90;;;;;;6207283;23;20509;-66
2024/01/29 01:15:54;;;;;;;23.13;9.47;;;9.30;99.90;;;;;;6208073;22;20032;-68
2024/01/29 01:18:20;;;;;;;22.97;9.10;;;9.20;99.90;;;;;;6207472;23;20000;-67
2024/01/29 01:20:45;;;;;;;16.80;8.40;;;9.10;99.90;;;;;;6207261;23;20009;-67
2024/01/29 01:23:11;;;;;;;21.83;9.23;;;9.10;99.90;;;;;;6207075;23;19996;-64
2024/01/29 01:25:37;;;;;;;18.60;9.13;;;9.20;99.90;;;;;;6207246;23;20005;-66
2024/01/29 01:28:02;;;;;;;21.60;8.47;;;9.20;99.90;;;;;;6207578;23;20026;-66
2024/01/29 01:30:28;;;;;;;20.77;8.93;;;9.10;99.90;;;;;;6207062;23;20020;-64
2024/01/29 01:32:53;;;;;;;25.23;8.47;;;9.20;99.90;;;;;;6207710;23;20009;-64
2024/01/29 01:35:19;;;;;;;25.67;9.33;;;9.20;99.90;;;;;;6208033;23;20009;-68
2024/01/29 01:37:45;;;;;;;13.43;8.13;;;9.20;99.90;;;;;;6207196;23;20468;-64
2024/01/29 01:40:11;;;;;;;18.43;9.87;;;9.20;99.90;;;;;;6208055;23;20016;-69
2024/01/29 01:42:41;;;;;;;18.80;8.68;;;9.10;99.90;;;;;;6206726;23;20004;-67
2024/01/29 01:45:07;;;;;;;19.30;9.00;;;9.10;99.90;;;;;;6207290;23;20380;-69
2024/01/29 01:47:33;;;;;;;18.17;8.45;;;8.90;99.90;;;;;;6207428;23;20008;-69
2024/01/29 01:49:58;;;;;;;24.30;9.07;;;9.00;99.90;;;;;;6206243;23;20004;-70
2024/01/29 01:52:24;;;;;;;21.90;7.97;;;8.90;99.90;;;;;;6207466;23;20228;-73
2024/01/29 01:54:50;;;;;;;17.37;8.53;;;8.90;99.90;;;;;;6207642;23;20090;-70
2024/01/29 01:57:16;;;;;;;22.75;9.32;;;9.10;99.90;;;;;;6207333;23;20001;-65
2024/01/29 01:59:41;;;;;;;23.60;9.13;;;9.00;99.90;;;;;;6206985;23;20398;-70
2024/01/29 02:02:08;;;;;;;27.77;8.97;;;9.00;99.90;;;;;;6207024;23;20319;-68
2024/01/29 02:04:33;;;;;;;;;;;8.90;99.90;;;;;;6207792;23;20123;-69
2024/01/29 02:06:59;;;;;;;19.50;8.02;;;8.90;99.90;;;;;;6206538;23;19950;-68
2024/01/29 02:09:25;;;;;;;16.80;9.00;;;9.10;99.90;;;;;;6206537;23;20008;-68
2024/01/29 02:11:51;;;;;;;29.75;9.50;;;9.00;99.90;;;;;;6207045;23;20704;-70
2024/01/29 02:14:17;;;;;;;27.27;8.57;;;8.90;99.90;;;;;;6207879;23;20005;-68
2024/01/29 02:16:42;;;;;;;24.07;8.10;;;8.80;99.90;;;;;;6207676;23;20220;-72
2024/01/29 02:19:15;;;;;;;18.33;9.33;;;8.80;99.90;;;;;;6207097;23;20055;-70
2024/01/29 02:21:42;;;;;;;15.15;7.57;;;8.80;99.90;;;;;;6206001;23;20009;-67
2024/01/29 02:24:07;;;;;;;;;;;9.00;99.90;;;;;;6207896;23;20036;-70
2024/01/29 02:26:33;;;;;;;18.45;8.13;;;8.90;99.90;;;;;;6207394;23;19911;-67
2024/01/29 02:28:59;;;;;;;26.60;8.53;;;8.80;99.90;;;;;;6207244;23;20016;-71
2024/01/29 02:31:24;;;;;;;23.13;8.40;;;8.90;99.90;;;;;;6206976;23;20020;-69
2024/01/29 02:33:50;;;;;;;22.33;8.40;;;8.90;99.90;;;;;;6207111;23;20012;-65
2024/01/29 02:36:16;;;;;;;15.07;7.80;;;8.80;99.90;;;;;;6207535;23;20023;-66
2024/01/29 02:38:42;;;;;;;14.07;8.10;;;8.80;99.90;;;;;;6207476;23;20468;-70
2024/01/29 02:41:09;;;;;;;20.95;8.93;;;8.70;99.90;;;;;;6207545;23;20024;-71
2024/01/29 02:43:35;;;;;;;18.10;7.80;;;8.90;99.90;;;;;;6207422;23;20008;-71
2024/01/29 02:46:01;;;;;;;15.50;8.23;;;8.80;99.90;;;;;;6207934;23;20004;-71
2024/01/29 02:48:26;;;;;;;14.25;6.82;;;8.60;99.90;;;;;;6209286;23;20020;-69
2024/01/29 02:50:52;;;;;;;20.55;7.43;;;8.70;99.90;;;;;;6209287;23;20346;-65
2024/01/29 02:53:18;;;;;;;23.58;8.23;;;8.90;99.90;;;;;;6209762;23;20005;-65
2024/01/29 02:55:44;;;;;;;21.97;8.13;;;8.90;99.90;;;;;;6209775;23;20008;-67
2024/01/29 02:58:09;;;;;;;17.77;9.13;;;8.80;99.90;;;;;;6209283;23;20005;-67
2024/01/29 03:00:35;;;;;;;24.03;8.47;;;8.80;99.90;;;;;;6209095;23;20036;-67
2024/01/29 03:03:01;;;;;;;19.20;8.47;;;8.80;99.90;;;;;;6209564;23;20005;-66
2024/01/29 03:05:26;;;;;;;21.70;9.00;;;8.80;99.90;;;;;;6210051;23;20005;-65
2024/01/29 03:07:52;;;;;;;17.20;7.95;;;8.70;99.90;;;;;;6210061;23;20040;-72
2024/01/29 03:10:18;;;;;;;21.40;8.10;;;8.70;99.90;;;;;;6209318;23;20032;-72
2024/01/29 03:12:43;;;;;;;21.57;7.83;;;8.70;99.90;;;;;;6209530;23;20342;-72
2024/01/29 03:15:09;;;;;;;25.77;8.20;;;8.80;99.90;;;;;;6207317;23;20492;-72
2024/01/29 03:17:34;;;;;;;16.57;7.60;;;8.70;99.90;;;;;;6208757;23;20016;-68
2024/01/29 03:20:00;;;;;;;23.33;8.60;;;8.70;99.90;;;;;;6209382;23;20012;-71
2024/01/29 03:22:26;;;;;;;22.27;7.97;;;8.60;99.90;;;;;;6209165;23;20393;-73
2024/01/29 03:24:51;;;;;;;14.33;7.47;;;8.70;99.90;;;;;;6209119;23;20774;-69
2024/01/29 03:27:17;;;;;;;27.83;7.33;;;8.80;99.90;;;;;;6258518;22;20040;-68
2024/01/29 03:29:42;;;;;;;14.60;6.37;;;8.80;99.90;;;;;;6209259;23;20016;-72
2024/01/29 03:32:09;;;;;;;18.40;6.70;;;8.90;99.90;;;;;;6209034;23;20004;-73
2024/01/29 03:34:35;;;;;;;;;;;8.70;99.90;;;;;;6209717;23;20342;-68
2024/01/29 03:37:00;;;;;;;17.05;6.70;;;8.70;99.90;;;;;;6208831;23;19907;-69
2024/01/29 03:39:26;;;;;;;19.87;6.90;;;8.70;99.90;;;;;;6209036;23;20005;-71
2024/01/29 03:41:51;;;;;;;12.80;6.43;;;8.70;99.90;;;;;;6208689;23;20005;-71
2024/01/29 03:44:17;;;;;;;18.67;6.70;;;8.90;99.90;;;;;;6208928;23;20353;-72
2024/01/29 03:46:43;;;;;;;17.25;7.60;;;8.80;99.90;;;;;;6208742;23;20012;-68
2024/01/29 03:49:08;;;;;;;18.17;6.25;;;8.60;99.90;;;;;;6207521;23;20013;-71
2024/01/29 03:51:34;;;;;;;12.10;6.40;;;8.80;99.90;;;;;;6208246;23;20008;-69
2024/01/29 03:54:00;;;;;;;22.03;7.30;;;8.60;99.90;;;;;;6208191;23;20023;-71
2024/01/29 03:56:26;;;;;;;17.17;6.50;;;8.90;99.90;;;;;;6207801;23;20048;-74
2024/01/29 03:58:51;;;;;;;20.60;7.20;;;8.80;99.90;;;;;;6207860;23;20012;-68
2024/01/29 04:01:30;;;;;;;21.37;7.50;;;8.70;99.90;;;;;;6208417;23;20004;-71
2024/01/29 04:03:55;;;;;;;37.67;6.90;;;8.70;99.90;;;;;;6208125;23;20382;-72
2024/01/29 04:06:21;;;;;;;12.57;6.80;;;8.70;99.90;;;;;;6208477;23;20001;-66
2024/01/29 04:08:47;;;;;;;18.25;6.75;;;8.70;99.90;;;;;;6208355;23;20104;-74
2024/01/29 04:11:13;;;;;;;14.98;6.75;;;8.70;99.90;;;;;;6207702;23;20381;-66
2024/01/29 04:13:39;;;;;;;16.40;7.43;;;8.80;99.90;;;;;;6207883;23;20123;-72
2024/01/29 04:16:08;;;;;;;17.33;6.43;;;8.70;99.90;;;;;;6208288;23;20231;-71
2024/01/29 04:18:33;;;;;;;9.70;5.97;;;8.70;99.90;;;;;;6207749;23;20011;-68
2024/01/29 04:20:59;;;;;;;16.27;6.47;;;8.80;99.90;;;;;;6208178;23;20079;-67
2024/01/29 04:23:24;;;;;;;12.87;6.00;;;8.60;99.90;;;;;;6207873;23;20004;-67
2024/01/29 04:25:50;;;;;;;15.73;8.43;;;8.40;99.90;;;;;;6206715;23;20088;-70
2024/01/29 04:28:16;;;;;;;22.40;6.53;;;8.80;99.90;;;;;;6208183;23;20067;-64
2024/01/29 04:30:42;;;;;;;14.00;6.13;;;8.90;99.90;;;;;;6207336;23;20441;-65
2024/01/29 04:33:08;;;;;;;;;;;8.90;99.90;;;;;;6208398;23;20011;-66
2024/01/29 04:35:35;;;;;;;16.55;6.03;;;8.80;99.90;;;;;;6207538;23;19904;-64
2024/01/29 04:38:00;;;;;;;21.50;6.53;;;8.70;99.90;;;;;;6208212;23;20475;-70
2024/01/29 04:40:26;;;;;;;15.20;6.60;;;8.70;99.90;;;;;;6208098;23;20000;-70
2024/01/29 04:42:51;;;;;;;12.63;5.43;;;8.80;99.90;;;;;;6207291;23;20251;-71
2024/01/29 04:45:17;;;;;;;20.33;7.03;;;8.80;99.90;;;;;;6207491;23;20096;-69
2024/01/29 04:47:43;;;;;;;12.57;5.33;;;8.70;99.90;;;;;;6256794;22;20020;-74
2024/01/29 04:50:08;;;;;;;15.53;5.97;;;8.50;99.90;;;;;;6207696;23;20001;-67
2024/01/29 04:52:34;;;;;;;16.83;6.10;;;8.40;99.90;;;;;;6207979;23;20012;-65
2024/01/29 04:55:00;;;;;;;14.97;6.07;;;8.40;99.90;;;;;;6207975;23;20476;-66
2024/01/29 04:57:25;;;;;;;12.67;5.90;;;8.40;99.90;;;;;;6208205;23;20004;-65
2024/01/29 04:59:51;;;;;;;13.37;5.97;;;8.20;99.90;;;;;;6208081;23;20012;-64
2024/01/29 05:02:16;;;;;;;17.90;6.27;;;8.40;99.90;;;;;;6208004;23;19997;-65
2024/01/29 05:04:42;;;;;;;10.95;6.07;;;8.30;99.90;;;;;;6207826;22;20507;-64
2024/01/29 05:07:08;;;;;;;13.55;5.88;;;8.30;99.90;;;;;;6207452;23;20618;-72
2024/01/29 05:09:33;;;;;;;15.77;5.63;;;8.40;99.90;;;;;;6207916;23;20008;-67
2024/01/29 05:11:59;;;;;;;11.47;6.50;;;8.20;99.90;;;;;;6207904;23;20396;-67
2024/01/29 05:14:27;;;;;;;14.97;5.17;;;7.90;99.90;;;;;;6207062;23;20001;-68
2024/01/29 05:16:53;;;;;;;14.85;6.03;;;;;;;;;;6207532;23;20507;-67
2024/01/29 05:19:19;;;;;;;14.43;5.90;;;7.90;99.90;;;;;;6207253;23;20032;-68
2024/01/29 05:21:45;;;;;;;;;;;7.90;99.90;;;;;;6207982;23;20011;-69
2024/01/29 05:24:10;;;;;;;10.20;5.30;;;8.20;99.90;;;;;;6207049;23;19908;-75
2024/01/29 05:26:36;;;;;;;13.63;5.30;;;8.10;99.90;;;;;;6205578;23;20012;-71
2024/01/29 05:29:02;;;;;;;14.30;5.30;;;7.90;99.90;;;;;;6207591;23;20091;-70
2024/01/29 05:31:27;;;;;;;15.70;6.00;;;7.80;99.90;;;;;;6256303;22;20111;-71
2024/01/29 05:33:53;;;;;;;13.00;6.23;;;8.10;99.90;;;;;;6207253;23;20721;-72
2024/01/29 05:36:18;;;;;;;24.63;5.63;;;7.80;99.90;;;;;;6207897;23;20135;-71
2024/01/29 05:38:44;;;;;;;18.67;5.77;;;7.90;99.90;;;;;;6206896;23;20016;-73
2024/01/29 05:41:10;;;;;;;12.10;5.13;;;7.80;99.90;;;;;;6207043;23;20236;-73
2024/01/29 05:43:35;;;;;;;15.43;5.90;;;8.00;99.90;;;;;;6207250;23;20032;-73
2024/01/29 05:46:01;;;;;;;10.57;5.40;;;7.90;99.90;;;;;;6207312;23;20009;-68
2024/01/29 05:48:26;;;;;;;15.00;5.90;;;8.00;99.90;;;;;;6206666;23;20087;-67
2024/01/29 05:50:52;;;;;;;12.63;4.77;;;7.90;99.90;;;;;;6205947;23;20328;-72
2024/01/29 05:53:20;;;;;;;10.07;4.80;;;8.10;99.90;;;;;;6207255;23;20019;-70
2024/01/29 05:55:46;;;;;;;10.13;4.40;;;8.00;99.90;;;;;;6207119;23;20095;-73
2024/01/29 05:58:11;;;;;;;10.98;5.28;;;7.90;99.90;;;;;;6205046;23;20404;-64
2024/01/29 06:00:37;;;;;;;10.67;4.53;;;7.90;99.90;;;;;;6206860;23;20020;-63
2024/01/29 06:03:03;;;;;;;16.43;5.13;;;7.70;99.90;;;;;;6207038;23;20001;-64
2024/01/29 06:05:28;;;;;;;16.97;5.47;;;7.70;99.90;;;;;;6206845;23;20031;-64
2024/01/29 06:07:55;;;;;;;9.73;4.20;;;7.70;99.90;;;;;;6206974;23;20259;-64
2024/01/29 06:10:21;;;;;;;10.02;5.22;;;8.10;99.90;;;;;;6207514;23;20009;-72
2024/01/29 06:12:47;;;;;;;12.23;4.87;;;8.10;99.90;;;;;;6207975;23;20528;-70
2024/01/29 06:15:13;;;;;;;12.45;5.00;;;8.00;99.90;;;;;;6207217;23;20001;-71
2024/01/29 06:17:40;;;;;;;12.20;5.13;;;7.90;99.90;;;;;;6207863;23;20008;-67
2024/01/29 06:20:06;;;;;;;18.90;5.05;;;8.00;99.90;;;;;;6207720;23;20001;-68
2024/01/29 06:22:32;;;;;;;10.90;5.55;;;8.10;99.90;;;;;;6233247;23;20012;-68
2024/01/29 06:24:57;;;;;;;13.47;5.80;;;8.10;99.90;;;;;;6209014;23;20050;-70
2024/01/29 06:27:23;;;;;;;7.97;4.53;;;8.10;99.90;;;;;;6209027;23;20011;-71
2024/01/29 06:29:48;;;;;;;15.10;5.20;;;8.00;99.90;;;;;;6209683;23;20013;-68
2024/01/29 06:32:14;;;;;;;15.00;4.67;;;8.00;99.90;;;;;;6209362;23;20040;-71
2024/01/29 06:34:40;;;;;;;8.73;4.43;;;7.80;99.90;;;;;;6208582;23;20019;-71
2024/01/29 06:37:05;;;;;;;9.57;5.37;;;7.60;99.90;;;;;;6257748;22;20116;-70
2024/01/29 06:39:32;;;;;;;14.67;5.63;;;7.70;99.90;;;;;;6208923;23;20028;-69
2024/01/29 06:41:58;;;;;;;18.33;6.00;;;7.80;99.90;;;;;;6208971;23;20005;-68
2024/01/29 06:44:23;;;;;;;18.40;5.33;;;7.70;99.90;;;;;;6209297;23;20000;-70
2024/01/29 06:46:49;;;;;;;13.33;5.53;;;7.50;99.90;;;;;;6209571;23;20256;-70
2024/01/29 06:49:26;;;;;;;16.53;6.07;;;7.40;99.90;;;;;;6208406;23;20279;-68
2024/01/29 06:51:52;;;;;;;18.13;5.57;;;7.50;99.90;;;;;;6208051;23;20044;-65
2024/01/29 06:54:17;;;;;;;13.90;6.17;;;7.50;99.90;;;;;;6209239;23;20532;-68
2024/01/29 06:56:43;;;;;;;12.37;5.20;;;7.50;99.90;;;;;;6208693;23;20008;-68
2024/01/29 06:59:08;;;;;;;20.20;5.90;;;7.70;99.90;;;;;;6209111;23;20001;-69
2024/01/29 07:01:34;;;;;;;14.60;5.40;;;7.70;99.90;;;;;;6208784;23;20000;-67
2024/01/29 07:04:00;;;;;;;17.43;5.57;;;7.70;99.90;;;;;;6209197;23;20009;-67
2024/01/29 07:06:25;;;;;;;12.27;5.03;;;7.80;99.90;;;;;;6208774;23;20310;-66
2024/01/29 07:08:51;;;;;;;17.13;5.27;;;7.90;99.90;;;;;;6208608;23;20464;-66
2024/01/29 07:11:16;;;;;;;14.03;5.60;;;7.80;99.90;;;;;;6209037;23;20056;-68
2024/01/29 07:13:42;;;;;;;12.53;6.53;;;7.60;99.90;;;;;;6209004;23;20004;-69
2024/01/29 07:16:08;;;;;;;16.03;4.67;;;7.70;99.90;;;;;;6206729;23;20009;-68
2024/01/29 07:18:33;;;;;;;14.93;5.10;;;7.80;99.90;;;;;;6208434;23;20075;-71
2024/01/29 07:20:59;;;;;;;10.07;4.70;;;7.80;99.90;;;;;;6208138;23;20008;-64
2024/01/29 07:23:25;;;;;;;9.30;4.65;;;8.10;99.90;;;;;;6257556;22;20240;-67
2024/01/29 07:25:50;;;;;;;16.93;5.63;;;8.00;99.90;;;;;;6208540;23;20009;-67
2024/01/29 07:28:16;;;;;;;16.20;5.10;;;8.10;99.90;;;;;;6208397;23;20012;-70
2024/01/29 07:30:42;;;;;;;12.47;5.07;;;8.20;99.90;;;;;;6207665;23;20363;-72
2024/01/29 07:33:07;;;;;;;17.30;6.13;;;8.30;99.90;;;;;;6207123;23;20012;-73
2024/01/29 07:35:33;;;;;;;11.13;4.80;;;8.50;99.90;;;;;;6208355;23;20062;-70
2024/01/29 07:37:59;;;;;;;10.38;4.68;;;8.40;99.90;;;;;;6209060;23;20008;-64
2024/01/29 07:40:24;;;;;;;11.57;4.43;;;8.50;99.90;;;;;;6208296;23;20004;-64
2024/01/29 07:42:50;;;;;;;13.40;4.97;;;8.50;99.90;;;;;;6209375;23;20012;-69
2024/01/29 07:45:16;;;;;;;9.40;5.03;;;8.50;99.90;;;;;;6209078;23;20015;-74
2024/01/29 07:47:42;;;;;;;13.25;4.70;;;8.90;99.90;;;;;;6208753;23;20020;-69
2024/01/29 07:50:08;;;;;;;13.00;5.40;;;8.70;99.90;;;;;;6208319;23;20005;-67
2024/01/29 07:52:34;;;;;;;9.20;4.50;;;8.80;99.90;;;;;;6208346;23;20462;-71
2024/01/29 07:54:59;;;;;;;11.33;4.33;;;8.90;99.90;;;;;;6208484;23;20004;-70
2024/01/29 07:57:25;;;;;;;14.02;4.25;;;9.00;99.90;;;;;;6208251;23;20079;-71
2024/01/29 07:59:51;;;;;;;9.68;4.32;;;9.10;99.90;;;;;;6207706;23;20015;-69
2024/01/29 08:02:17;;;;;;;11.70;4.60;;;9.20;99.90;;;;;;6207958;23;20008;-71
2024/01/29 08:04:42;;;;;;;14.40;4.63;;;9.20;99.90;;;;;;6205708;23;20327;-75
2024/01/29 08:07:08;;;;;;;6.90;4.10;;;9.50;99.90;;;;;;6207161;23;20472;-69
2024/01/29 08:09:33;;;;;;;14.30;5.87;;;10.20;99.90;;;;;;6207519;23;20005;-70
2024/01/29 08:11:59;;;;;;;16.90;5.03;;;10.60;99.40;;;;;;6206715;23;20004;-72
2024/01/29 08:14:25;;;;;;;10.33;5.63;;;10.90;97.90;;;;;;6208370;23;20013;-75
2024/01/29 08:16:51;;;;;;;10.85;4.18;;;10.90;97.80;;;;;;6208411;23;20657;-73
2024/01/29 08:19:17;;;;;;;10.70;4.60;;;11.10;96.40;;;;;;6208035;23;20001;-70
2024/01/29 08:21:43;;;;;;;7.88;4.38;;;11.40;95.90;;;;;;6207962;23;20012;-72
2024/01/29 08:24:08;;;;;;;10.43;4.90;;;11.70;94.30;;;;;;6208146;23;20008;-75
2024/01/29 08:26:34;;;;;;;9.95;4.60;;;11.60;94.30;;;;;;6208075;23;20001;-72
2024/01/29 08:28:59;;;;;;;11.40;4.23;;;11.50;94.10;;;;;;6207970;23;20401;-69
2024/01/29 08:31:25;;;;;;;12.70;4.67;;;11.70;93.40;;;;;;6208062;23;20016;-76
2024/01/29 08:33:51;;;;;;;11.30;4.40;;;12.10;93.10;;;;;;6208265;23;20023;-65
2024/01/29 08:36:20;;;;;;;11.63;3.83;;;12.20;92.20;;;;;;6208881;23;20001;-74
2024/01/29 08:38:46;;;;;;;10.25;4.82;;;12.30;92.10;;;;;;6208458;23;20001;-65
2024/01/29 08:41:12;;;;;;;11.93;4.68;;;12.40;91.50;;;;;;6208430;23;20013;-75
2024/01/29 08:43:38;;;;;;;8.07;4.05;;;12.30;91.80;;;;;;6208039;23;20012;-72
2024/01/29 08:46:04;;;;;;;9.20;4.03;;;12.70;90.80;;;;;;6207403;23;20001;-74
2024/01/29 08:48:29;;;;;;;7.87;4.10;;;12.90;89.50;;;;;;6208036;23;20012;-69
2024/01/29 08:50:55;;;;;;;6.97;4.30;;;13.30;88.70;;;;;;6208027;23;20011;-66
2024/01/29 08:53:21;;;;;;;14.77;3.83;;;13.80;85.70;;;;;;6208224;23;20062;-65
2024/01/29 08:55:46;;;;;;;13.47;4.07;;;14.00;85.60;;;;;;6257568;22;20032;-65
2024/01/29 08:58:12;;;;;;;8.77;3.23;;;14.30;83.60;;;;;;6206853;23;20099;-64
2024/01/29 09:00:37;;;;;;;10.47;3.80;;;14.60;81.20;;;;;;6207614;23;20026;-65
2024/01/29 09:03:03;;;;;;;12.27;3.83;;;15.00;81.70;;;;;;6207618;23;20009;-65
2024/01/29 09:05:29;;;;;;;11.98;3.70;;;15.20;80.70;;;;;;6207735;23;20349;-66
2024/01/29 09:07:54;;;;;;;9.97;3.70;;;15.00;78.60;;;;;;6207695;23;20044;-64
2024/01/29 09:10:20;;;;;;;11.23;4.30;;;15.00;77.90;;;;;;6208820;23;20004;-66
2024/01/29 09:12:46;;;;;;;10.90;3.73;;;16.10;75.60;;;;;;6208494;23;20331;-70
2024/01/29 09:15:12;;;;;;;7.00;3.73;;;15.80;74.90;;;;;;6205819;23;20007;-71
2024/01/29 09:17:37;;;;;;;17.70;3.88;;;16.50;73.90;;;;;;6207442;23;20011;-66
2024/01/29 09:20:10;;;;;;;13.10;4.17;;;16.70;71.20;;;;;;6206010;23;20012;-70
2024/01/29 09:22:35;;;;;;;13.05;4.85;;;17.60;69.00;;;;;;6207516;23;20005;-71
2024/01/29 09:25:01;;;;;;;11.57;3.70;;;17.70;66.80;;;;;;6207463;23;20050;-73
2024/01/29 09:27:26;;;;;;;11.97;4.10;;;17.00;66.20;;;;;;6206898;23;20558;-70
2024/01/29 09:29:52;;;;;;;9.70;3.97;;;17.70;67.00;;;;;;6207481;23;20028;-67
2024/01/29 09:32:18;;;;;;;9.02;3.60;;;17.50;64.90;;;;;;6207625;23;20047;-74
2024/01/29 09:34:43;;;;;;;11.63;3.67;;;17.70;65.70;;;;;;6207886;23;20089;-72
2024/01/29 09:37:09;;;;;;;10.50;3.93;;;17.40;64.60;;;;;;6206664;23;20004;-72
2024/01/29 09:39:34;;;;;;;8.80;3.20;;;17.50;63.70;;;;;;6207139;23;20028;-71
2024/01/29 09:42:05;;;;;;;11.60;4.40;;;16.80;65.60;;;;;;6207234;23;20012;-72
2024/01/29 09:44:37;;;;;;;6.28;3.72;;;17.10;65.30;;;;;;6207632;23;20013;-72
2024/01/29 09:47:05;;;;;;;7.85;3.55;;;16.40;66.30;;;;;;6207509;23;20019;-69
2024/01/29 09:49:31;;;;;;;7.60;3.50;;;15.10;68.00;;;;;;6207483;23;20019;-74
2024/01/29 09:51:57;;;;;;;7.00;4.20;;;;;;;;;;6206821;23;20028;-69
2024/01/29 09:54:23;;;;;;;8.50;3.38;;;;;;;;;;6207671;23;20004;-73
2024/01/29 09:56:49;;;;;;;9.18;3.70;;;14.40;70.80;;;;;;6207465;23;20005;-72
2024/01/29 09:59:14;;;;;;;5.90;3.60;;;14.80;70.60;;;;;;6207189;23;20079;-68
2024/01/29 10:01:41;;;;;;;8.40;3.30;;;14.60;71.40;;;;;;6256199;22;20860;-69
2024/01/29 10:04:06;;;;;;;7.53;3.20;;;15.00;71.60;;;;;;6205076;23;20055;-70
2024/01/29 10:06:32;;;;;;;10.90;3.37;;;15.60;71.20;;;;;;6207103;23;20437;-68
2024/01/29 10:08:58;;;;;;;6.78;3.15;;;15.80;68.90;;;;;;6206123;23;20016;-73
2024/01/29 10:11:24;;;;;;;5.78;3.10;;;14.60;71.80;;;;;;6204215;23;20344;-64
2024/01/29 10:14:00;;;;;;;6.05;2.95;;;14.10;73.50;;;;;;6207846;23;20413;-68
2024/01/29 10:16:30;;;;;;;7.55;3.30;;;13.90;75.70;;;;;;6207198;23;20009;-69
2024/01/29 10:19:00;;;;;;;10.55;4.03;;;14.10;76.20;;;;;;6206689;22;20008;-67
2024/01/29 10:21:26;;;;;;;11.68;3.20;;;14.50;74.50;;;;;;6205614;23;20008;-72
2024/01/29 10:23:59;;;;;;;6.30;3.13;;;15.50;71.50;;;;;;6207846;23;20015;-67
2024/01/29 10:26:26;;;;;;;6.07;3.13;;;15.70;71.70;;;;;;6207723;23;20441;-66
2024/01/29 10:29:02;;;;;;;7.53;3.42;;;15.20;70.90;;;;;;6205411;23;20392;-68
2024/01/29 10:31:28;;;;;;;8.93;3.72;;;14.80;73.10;;;;;;6207450;23;20019;-72
2024/01/29 10:33:54;;;;;;;6.88;2.88;;;14.30;73.80;;;;;;6207880;23;20001;-65
2024/01/29 10:36:21;;;;;;;10.18;3.38;;;14.00;74.60;;;;;;6208205;23;20349;-65
2024/01/29 10:38:47;;;;;;;8.10;3.55;;;13.60;76.30;;;;;;6208182;23;20004;-65
2024/01/29 10:41:17;;;;;;;22.77;3.53;;;13.80;76.90;;;;;;6208198;23;20005;-68
2024/01/29 10:43:49;;;;;;;10.75;3.83;;;13.60;76.30;;;;;;6207467;23;20047;-66
2024/01/29 10:46:20;;;;;;;5.10;2.90;;;13.60;76.20;;;;;;6207669;23;20469;-68
2024/01/29 10:48:46;;;;;;;11.38;3.58;;;13.50;75.40;;;;;;6207451;23;20523;-71
2024/01/29 10:51:15;;;;;;;4.70;2.95;;;13.50;75.90;;;;;;6207049;23;20127;-68
2024/01/29 10:53:42;;;;;;;9.98;3.10;;;13.40;76.70;;;;;;6207545;23;20356;-64
2024/01/29 10:56:09;;;;;;;6.38;2.92;;;13.40;77.00;;;;;;6207181;23;20004;-68
2024/01/29 10:58:36;;;;;;;7.40;4.30;;;13.30;76.40;;;;;;6207170;23;20449;-67
2024/01/29 11:01:03;;;;;;;17.33;2.90;;;13.40;77.80;;;;;;6230228;23;20016;-64
2024/01/29 11:03:29;;;;;;;6.00;2.95;;;13.40;77.00;;;;;;6207107;23;20089;-66
2024/01/29 11:06:04;;;;;;;;;;;13.60;76.90;;;;;;6207663;23;20437;-67
2024/01/29 11:08:33;;;;;;;5.95;2.47;;;13.40;76.70;;;;;;6206391;23;19916;-68
2024/01/29 11:11:01;;;;;;;7.00;2.50;;;13.30;76.50;;;;;;6208409;23;20024;-70
2024/01/29 11:13:28;;;;;;;7.93;2.55;;;13.20;79.30;;;;;;6208799;23;20076;-68
2024/01/29 11:15:55;;;;;;;10.95;2.53;;;13.20;78.10;;;;;;6208793;23;20450;-74
2024/01/29 11:18:20;;;;;;;9.13;2.47;;;13.20;77.20;;;;;;6208954;23;20258;-69
2024/01/29 11:20:50;;;;;;;4.90;2.70;;;13.30;77.70;;;;;;6208576;23;20031;-71
2024/01/29 11:23:16;;;;;;;4.90;3.00;;;13.30;79.10;;;;;;6209073;23;20008;-66
2024/01/29 11:25:41;;;;;;;11.57;2.80;;;13.40;80.00;;;;;;6208788;23;20387;-71
2024/01/29 11:28:08;;;;;;;6.67;2.80;;;13.30;79.00;;;;;;6208786;23;20038;-76
2024/01/29 11:30:33;;;;;;;5.07;2.40;;;13.40;79.50;;;;;;6208410;23;20365;-69
2024/01/29 11:33:17;;;;;;;10.10;2.70;;;13.40;80.50;;;;;;6207748;23;20008;-72
2024/01/29 11:35:45;;;;;;;8.70;3.00;;;13.40;79.60;;;;;;6207983;23;20513;-69
2024/01/29 11:38:12;;;;;;;10.50;3.40;;;13.40;78.90;;;;;;6208300;23;20755;-75
2024/01/29 11:40:41;;;;;;;9.77;3.55;;;13.50;79.50;;;;;;6208012;23;20013;-73
2024/01/29 11:43:14;;;;;;;12.85;2.85;;;13.50;79.90;;;;;;6208472;23;20009;-70
2024/01/29 11:45:40;;;;;;;8.90;3.28;;;13.50;78.10;;;;;;6208396;23;20792;-76
2024/01/29 11:48:13;;;;;;;7.90;3.50;;;13.60;79.70;;;;;;6208866;23;20017;-73
2024/01/29 11:50:44;;;;;;;5.28;2.25;;;13.40;79.20;;;;;;6206685;23;20088;-68
2024/01/29 11:53:14;;;;;;;6.60;3.17;;;13.50;79.50;;;;;;6208671;23;20000;-65
2024/01/29 11:55:49;;;;;;;16.48;3.35;;;13.70;79.40;;;;;;6208372;23;20728;-69
2024/01/29 11:58:19;;;;;;;9.07;3.30;;;13.70;78.90;;;;;;6208357;23;20020;-76
2024/01/29 12:00:46;;;;;;;8.07;2.72;;;13.60;78.80;;;;;;6209014;23;20001;-71
2024/01/29 12:03:17;;;;;;;9.02;2.95;;;13.50;77.70;;;;;;6208879;23;20012;-65
2024/01/29 12:05:44;;;;;;;9.48;2.47;;;13.60;78.50;;;;;;6209897;23;20043;-72
2024/01/29 12:08:17;;;;;;;5.53;2.50;;;13.50;77.00;;;;;;6208353;23;20438;-75
2024/01/29 12:10:43;;;;;;;11.40;2.92;;;13.50;78.20;;;;;;6208120;23;20333;-71
2024/01/29 12:13:17;;;;;;;7.60;2.65;;;13.70;77.20;;;;;;6208867;23;20009;-72
2024/01/29 12:15:44;;;;;;;6.72;2.72;;;13.70;76.60;;;;;;6208556;23;20000;-68
2024/01/29 12:18:22;;;;;;;8.10;2.58;;;13.70;78.80;;;;;;6208133;23;20009;-69
2024/01/29 12:20:48;;;;;;;12.25;2.55;;;13.70;76.00;;;;;;6208034;23;20004;-68
2024/01/29 12:23:17;;;;;;;7.22;3.00;;;13.70;76.90;;;;;;6207570;23;20082;-70
2024/01/29 12:25:47;;;;;;;6.95;2.20;;;13.60;76.80;;;;;;6208300;23;20445;-74
2024/01/29 12:28:15;;;;;;;5.18;2.53;;;13.60;76.80;;;;;;6208264;23;20091;-69
2024/01/29 12:31:05;;;;;;;7.45;2.70;;;13.70;76.90;;;;;;6207861;23;20022;-66
2024/01/29 12:33:32;;;;;;;4.75;2.35;;;13.70;76.40;;;;;;6207929;23;20013;-72
2024/01/29 12:36:13;;;;;;;;;;;13.70;75.50;;;;;;6208549;23;20464;-70
2024/01/29 12:38:40;;;;;;;9.80;2.30;;;13.70;75.80;;;;;;6207680;23;19904;-72
2024/01/29 12:41:06;;;;;;;6.70;2.53;;;13.60;76.90;;;;;;6208016;23;20099;-67
2024/01/29 12:43:32;;;;;;;5.75;2.72;;;13.70;76.00;;;;;;6207935;23;20080;-70